createdAt,value
2017-10-18T00:00:08.401Z,29.33
2017-10-18T00:00:42.351Z,38.65
2017-10-18T00:01:16.219Z,31.90
2017-10-18T00:01:50.100Z,35.95
2017-10-18T00:02:24.009Z,31.55
2017-10-18T00:02:57.884Z,32.47
2017-10-18T00:03:31.788Z,38.13
2017-10-18T00:04:05.667Z,27.10
2017-10-18T00:04:39.543Z,28.67
2017-10-18T00:05:13.437Z,32.60
2017-10-18T00:05:47.331Z,32.90
2017-10-18T00:06:23.487Z,27.17
2017-10-18T00:06:57.359Z,28.52
2017-10-18T00:07:31.223Z,31.70
2017-10-18T00:08:05.105Z,33.80
2017-10-18T00:08:38.984Z,29.65
2017-10-18T00:09:12.863Z,31.62
2017-10-18T00:09:46.728Z,29.55
2017-10-18T00:10:20.609Z,26.75
2017-10-18T00:10:54.503Z,30.58
2017-10-18T00:11:28.368Z,26.50
2017-10-18T00:12:02.248Z,27.95
2017-10-18T00:12:36.114Z,27.48
2017-10-18T00:13:09.978Z,28.75
2017-10-18T00:13:43.851Z,27.30
2017-10-18T00:14:17.725Z,26.48
2017-10-18T00:14:51.629Z,28.05
2017-10-18T00:15:25.497Z,35.75
2017-10-18T00:15:59.372Z,30.67
2017-10-18T00:16:33.241Z,32.47
2017-10-18T00:17:07.121Z,28.65
2017-10-18T00:17:40.993Z,29.65
2017-10-18T00:18:14.857Z,27.73
2017-10-18T00:18:48.727Z,33.53
2017-10-18T00:19:22.596Z,31.98
2017-10-18T00:19:56.468Z,29.20
2017-10-18T00:20:30.340Z,29.08
2017-10-18T00:21:04.220Z,29.52
2017-10-18T00:21:38.079Z,29.33
2017-10-18T00:22:11.939Z,30.67
2017-10-18T00:22:45.836Z,31.12
2017-10-18T00:23:19.729Z,32.17
2017-10-18T00:23:53.632Z,27.70
2017-10-18T00:24:27.500Z,28.45
2017-10-18T00:25:01.392Z,29.05
2017-10-18T00:25:35.273Z,27.42
2017-10-18T00:26:09.156Z,29.35
2017-10-18T00:26:43.027Z,28.75
2017-10-18T00:27:16.906Z,27.60
2017-10-18T00:27:50.796Z,25.77
2017-10-18T00:28:24.664Z,28.60
2017-10-18T00:28:58.523Z,26.98
2017-10-18T00:29:32.405Z,25.80
2017-10-18T00:30:06.271Z,31.65
2017-10-18T00:30:40.137Z,27.75
2017-10-18T00:31:14.029Z,27.45
2017-10-18T00:31:47.924Z,29.35
2017-10-18T00:32:21.800Z,28.92
2017-10-18T00:32:55.676Z,30.83
2017-10-18T00:33:29.548Z,27.55
2017-10-18T00:34:03.426Z,27.17
2017-10-18T00:34:37.311Z,26.30
2017-10-18T00:35:11.188Z,28.48
2017-10-18T00:35:45.061Z,27.50
2017-10-18T00:36:18.946Z,27.77
2017-10-18T00:36:52.812Z,26.52
2017-10-18T00:37:26.678Z,29.33
2017-10-18T00:38:00.550Z,31.45
2017-10-18T00:38:34.432Z,36.03
2017-10-18T00:39:08.307Z,26.25
2017-10-18T00:39:42.222Z,25.65
2017-10-18T00:40:16.103Z,26.42
2017-10-18T00:40:49.956Z,28.98
2017-10-18T00:41:23.834Z,27.15
2017-10-18T00:41:57.722Z,33.80
2017-10-18T00:42:31.612Z,29.58
2017-10-18T00:43:05.482Z,33.25
2017-10-18T00:43:39.353Z,32.45
2017-10-18T00:44:13.232Z,23.70
2017-10-18T00:44:47.093Z,32.42
2017-10-18T00:45:20.971Z,29.00
2017-10-18T00:45:54.841Z,24.58
2017-10-18T00:46:28.740Z,28.75
2017-10-18T00:47:02.607Z,29.48
2017-10-18T00:47:36.486Z,26.67
2017-10-18T00:48:10.349Z,29.42
2017-10-18T00:48:44.261Z,30.85
2017-10-18T00:49:18.116Z,32.08
2017-10-18T00:49:51.980Z,30.20
2017-10-18T00:50:25.854Z,28.27
2017-10-18T00:50:59.728Z,33.97
2017-10-18T00:51:33.735Z,30.42
2017-10-18T00:52:07.622Z,26.85
2017-10-18T00:52:41.500Z,27.00
2017-10-18T00:53:15.372Z,30.95
2017-10-18T00:53:49.249Z,25.60
2017-10-18T00:54:23.120Z,25.10
2017-10-18T00:54:56.991Z,24.02
2017-10-18T00:55:30.851Z,28.48
2017-10-18T00:56:04.728Z,27.67
2017-10-18T00:56:38.613Z,31.20
2017-10-18T00:57:12.502Z,28.65
2017-10-18T00:57:46.370Z,29.70
2017-10-18T00:58:20.250Z,31.73
2017-10-18T00:58:54.122Z,35.60
2017-10-18T00:59:28.009Z,30.10
2017-10-18T01:00:01.890Z,29.33
2017-10-18T01:00:35.767Z,31.75
2017-10-18T01:01:09.630Z,29.00
2017-10-18T01:01:43.533Z,28.15
2017-10-18T01:02:17.413Z,32.97
2017-10-18T01:02:51.281Z,31.40
2017-10-18T01:03:25.156Z,27.15
2017-10-18T01:03:59.030Z,29.60
2017-10-18T01:04:32.930Z,26.02
2017-10-18T01:05:06.801Z,27.20
2017-10-18T01:05:40.697Z,30.30
2017-10-18T01:06:14.571Z,32.13
2017-10-18T01:06:48.484Z,28.52
2017-10-18T01:07:22.366Z,30.40
2017-10-18T01:07:56.253Z,32.95
2017-10-18T01:08:30.117Z,29.75
2017-10-18T01:09:04.001Z,29.45
2017-10-18T01:09:37.896Z,34.10
2017-10-18T01:10:11.762Z,30.08
2017-10-18T01:10:45.651Z,30.35
2017-10-18T01:11:19.539Z,26.90
2017-10-18T01:11:53.439Z,32.28
2017-10-18T01:12:27.312Z,31.87
2017-10-18T01:13:01.245Z,32.55
2017-10-18T01:13:35.134Z,28.45
2017-10-18T01:14:09.000Z,26.87
2017-10-18T01:14:42.866Z,30.40
2017-10-18T01:15:16.743Z,30.85
2017-10-18T01:15:50.616Z,26.37
2017-10-18T01:16:24.464Z,30.45
2017-10-18T01:16:58.386Z,27.77
2017-10-18T01:17:32.269Z,28.05
2017-10-18T01:18:06.150Z,29.73
2017-10-18T01:18:40.025Z,27.33
2017-10-18T01:19:13.898Z,36.90
2017-10-18T01:19:47.765Z,38.53
2017-10-18T01:20:21.636Z,30.88
2017-10-18T01:20:55.520Z,33.92
2017-10-18T01:21:29.391Z,33.53
2017-10-18T01:22:03.271Z,36.67
2017-10-18T01:22:37.145Z,37.25
2017-10-18T01:23:11.026Z,31.62
2017-10-18T01:23:44.909Z,32.55
2017-10-18T01:24:18.797Z,29.23
2017-10-18T01:24:52.663Z,31.42
2017-10-18T01:25:26.533Z,31.92
2017-10-18T01:26:00.396Z,35.33
2017-10-18T01:26:34.270Z,35.17
2017-10-18T01:27:08.138Z,33.33
2017-10-18T01:27:42.037Z,33.90
2017-10-18T01:28:15.908Z,30.45
2017-10-18T01:28:49.771Z,35.60
2017-10-18T01:29:23.658Z,32.05
2017-10-18T01:29:57.554Z,28.83
2017-10-18T01:30:31.440Z,30.05
2017-10-18T01:31:05.299Z,30.00
2017-10-18T01:31:39.199Z,28.55
2017-10-18T01:32:13.086Z,32.13
2017-10-18T01:32:46.963Z,33.30
2017-10-18T01:33:20.843Z,31.25
2017-10-18T01:33:54.713Z,28.77
2017-10-18T01:34:28.601Z,31.62
2017-10-18T01:35:02.470Z,27.17
2017-10-18T01:35:36.346Z,34.67
2017-10-18T01:36:10.228Z,29.95
2017-10-18T01:36:44.093Z,26.20
2017-10-18T01:37:17.984Z,29.83
2017-10-18T01:37:51.844Z,30.58
2017-10-18T01:38:25.726Z,34.63
2017-10-18T01:38:59.605Z,33.20
2017-10-18T01:39:33.481Z,31.67
2017-10-18T01:40:07.865Z,33.63
2017-10-18T01:40:41.736Z,32.88
2017-10-18T01:41:15.599Z,27.85
2017-10-18T01:41:49.467Z,32.63
2017-10-18T01:42:23.355Z,27.75
2017-10-18T01:42:57.240Z,33.95
2017-10-18T01:43:31.110Z,30.27
2017-10-18T01:44:04.988Z,29.83
2017-10-18T01:44:38.858Z,32.58
2017-10-18T01:45:12.744Z,31.50
2017-10-18T01:45:46.627Z,34.10
2017-10-18T01:46:20.496Z,29.45
2017-10-18T01:46:54.367Z,38.60
2017-10-18T01:47:28.260Z,33.20
2017-10-18T01:48:02.147Z,32.15
2017-10-18T01:48:36.040Z,41.28
2017-10-18T01:49:09.923Z,33.20
2017-10-18T01:49:43.786Z,31.35
2017-10-18T01:50:17.643Z,33.20
2017-10-18T01:50:51.516Z,43.45
2017-10-18T01:51:25.387Z,33.72
2017-10-18T01:51:59.266Z,38.55
2017-10-18T01:52:33.171Z,35.50
2017-10-18T01:53:07.047Z,32.38
2017-10-18T01:53:40.929Z,30.25
2017-10-18T01:54:14.794Z,31.08
2017-10-18T01:54:49.018Z,33.22
2017-10-18T01:55:22.885Z,27.00
2017-10-18T01:55:56.791Z,31.00
2017-10-18T01:56:30.700Z,33.13
2017-10-18T01:57:04.591Z,33.83
2017-10-18T01:57:38.494Z,32.97
2017-10-18T01:58:12.386Z,31.48
2017-10-18T01:58:46.254Z,32.97
2017-10-18T01:59:20.138Z,38.22
2017-10-18T01:59:54.006Z,30.12
2017-10-18T02:00:27.923Z,30.27
2017-10-18T02:01:13.791Z,31.40
2017-10-18T02:01:51.607Z,31.50
2017-10-18T02:02:25.491Z,30.42
2017-10-18T02:02:59.710Z,35.55
2017-10-18T02:03:33.598Z,33.92
2017-10-18T02:04:07.482Z,27.98
2017-10-18T02:04:41.353Z,33.47
2017-10-18T02:05:15.225Z,34.47
2017-10-18T02:05:49.104Z,29.92
2017-10-18T02:06:22.982Z,32.45
2017-10-18T02:06:56.854Z,33.80
2017-10-18T02:07:30.715Z,37.30
2017-10-18T02:08:04.594Z,27.87
2017-10-18T02:08:38.461Z,30.80
2017-10-18T02:09:12.326Z,34.28
2017-10-18T02:09:46.198Z,34.05
2017-10-18T02:10:20.069Z,28.38
2017-10-18T02:10:53.965Z,32.50
2017-10-18T02:11:27.851Z,32.42
2017-10-18T02:12:01.731Z,33.10
2017-10-18T02:12:35.608Z,33.90
2017-10-18T02:13:09.518Z,36.97
2017-10-18T02:13:43.386Z,33.90
2017-10-18T02:14:17.255Z,30.50
2017-10-18T02:14:51.139Z,33.45
2017-10-18T02:15:25.025Z,32.10
2017-10-18T02:15:58.898Z,33.25
2017-10-18T02:16:32.771Z,35.47
2017-10-18T02:17:06.644Z,34.00
2017-10-18T02:17:40.533Z,30.37
2017-10-18T02:18:14.410Z,37.50
2017-10-18T02:18:48.291Z,37.72
2017-10-18T02:19:22.176Z,32.33
2017-10-18T02:19:56.052Z,36.35
2017-10-18T02:20:29.922Z,32.40
2017-10-18T02:21:03.791Z,32.45
2017-10-18T02:21:37.663Z,35.88
2017-10-18T02:22:11.535Z,30.35
2017-10-18T02:22:45.414Z,34.88
2017-10-18T02:23:19.300Z,31.30
2017-10-18T02:23:53.221Z,33.47
2017-10-18T02:24:27.089Z,36.40
2017-10-18T02:25:00.977Z,29.55
2017-10-18T02:25:34.889Z,33.05
2017-10-18T02:26:08.772Z,34.35
2017-10-18T02:26:42.648Z,35.55
2017-10-18T02:27:16.518Z,35.25
2017-10-18T02:27:50.391Z,30.37
2017-10-18T02:28:24.292Z,30.55
2017-10-18T02:28:58.164Z,30.35
2017-10-18T02:29:32.048Z,27.98
2017-10-18T02:30:05.934Z,32.30
2017-10-18T02:30:39.808Z,33.58
2017-10-18T02:31:13.694Z,32.95
2017-10-18T02:31:47.596Z,28.12
2017-10-18T02:32:21.479Z,29.17
2017-10-18T02:32:55.354Z,33.80
2017-10-18T02:33:29.238Z,27.08
2017-10-18T02:34:03.100Z,24.50
2017-10-18T02:34:36.984Z,30.10
2017-10-18T02:35:10.855Z,26.87
2017-10-18T02:35:44.743Z,32.42
2017-10-18T02:36:18.620Z,31.35
2017-10-18T02:36:52.529Z,26.73
2017-10-18T02:37:26.406Z,31.75
2017-10-18T02:38:00.284Z,26.83
2017-10-18T02:38:34.185Z,27.73
2017-10-18T02:39:08.077Z,29.00
2017-10-18T02:39:41.949Z,34.58
2017-10-18T02:40:15.844Z,33.28
2017-10-18T02:40:49.716Z,29.40
2017-10-18T02:41:23.608Z,34.47
2017-10-18T02:41:57.491Z,29.45
2017-10-18T02:42:31.357Z,30.85
2017-10-18T02:43:05.236Z,31.85
2017-10-18T02:43:39.160Z,27.83
2017-10-18T02:44:13.040Z,28.85
2017-10-18T02:44:46.925Z,29.65
2017-10-18T02:45:20.824Z,30.20
2017-10-18T02:45:54.709Z,32.50
2017-10-18T02:46:28.577Z,31.30
2017-10-18T02:47:02.459Z,30.48
2017-10-18T02:47:36.332Z,33.88
2017-10-18T02:48:10.214Z,28.75
2017-10-18T02:48:44.106Z,28.70
2017-10-18T02:49:17.971Z,30.15
2017-10-18T02:49:51.841Z,31.42
2017-10-18T02:50:25.726Z,27.42
2017-10-18T02:50:59.588Z,32.85
2017-10-18T02:51:33.476Z,30.73
2017-10-18T02:52:07.358Z,28.87
2017-10-18T02:52:41.238Z,28.73
2017-10-18T02:53:15.138Z,25.33
2017-10-18T02:53:49.033Z,26.83
2017-10-18T02:54:22.932Z,26.70
2017-10-18T02:54:56.789Z,30.42
2017-10-18T02:55:30.659Z,27.92
2017-10-18T02:56:04.552Z,26.10
2017-10-18T02:56:38.418Z,31.98
2017-10-18T02:57:12.278Z,31.45
2017-10-18T02:57:46.152Z,29.27
2017-10-18T02:58:20.033Z,27.90
2017-10-18T02:58:53.918Z,35.28
2017-10-18T02:59:27.817Z,35.33
2017-10-18T03:00:01.711Z,30.75
2017-10-18T03:00:35.592Z,30.75
2017-10-18T03:01:09.464Z,30.02
2017-10-18T03:01:43.348Z,36.40
2017-10-18T03:02:17.226Z,29.30
2017-10-18T03:02:51.101Z,32.78
2017-10-18T03:03:25.085Z,36.28
2017-10-18T03:03:58.968Z,39.83
2017-10-18T03:04:32.842Z,34.05
2017-10-18T03:05:06.721Z,32.15
2017-10-18T03:05:40.601Z,31.77
2017-10-18T03:06:14.482Z,36.03
2017-10-18T03:06:48.348Z,33.40
2017-10-18T03:07:22.234Z,31.65
2017-10-18T03:07:56.108Z,32.83
2017-10-18T03:08:29.991Z,29.98
2017-10-18T03:09:03.879Z,30.35
2017-10-18T03:09:37.755Z,29.40
2017-10-18T03:10:11.646Z,30.65
2017-10-18T03:10:45.523Z,29.80
2017-10-18T03:11:19.388Z,31.17
2017-10-18T03:11:53.267Z,34.88
2017-10-18T03:12:27.141Z,31.62
2017-10-18T03:13:01.003Z,38.38
2017-10-18T03:13:34.880Z,33.42
2017-10-18T03:14:08.765Z,30.83
2017-10-18T03:14:42.636Z,34.15
2017-10-18T03:15:16.712Z,34.67
2017-10-18T03:15:50.613Z,33.63
2017-10-18T03:16:24.483Z,35.60
2017-10-18T03:16:58.363Z,36.88
2017-10-18T03:17:32.248Z,32.28
2017-10-18T03:18:06.120Z,34.97
2017-10-18T03:18:39.999Z,30.05
2017-10-18T03:19:13.880Z,36.22
2017-10-18T03:19:47.752Z,34.33
2017-10-18T03:20:21.614Z,32.78
2017-10-18T03:20:55.495Z,35.47
2017-10-18T03:21:29.359Z,32.97
2017-10-18T03:22:03.236Z,30.75
2017-10-18T03:22:37.111Z,27.55
2017-10-18T03:23:10.993Z,28.40
2017-10-18T03:23:44.865Z,34.80
2017-10-18T03:24:18.746Z,30.60
2017-10-18T03:24:52.612Z,28.33
2017-10-18T03:25:26.491Z,28.87
2017-10-18T03:26:00.371Z,28.50
2017-10-18T03:26:34.242Z,30.88
2017-10-18T03:27:08.109Z,26.27
2017-10-18T03:27:41.984Z,27.23
2017-10-18T03:28:15.863Z,32.17
2017-10-18T03:28:49.771Z,33.38
2017-10-18T03:29:23.663Z,29.10
2017-10-18T03:29:57.557Z,30.42
2017-10-18T03:30:31.439Z,33.75
2017-10-18T03:31:05.331Z,30.45
2017-10-18T03:31:39.191Z,29.83
2017-10-18T03:32:13.095Z,31.55
2017-10-18T03:32:46.976Z,28.30
2017-10-18T03:33:20.864Z,33.70
2017-10-18T03:33:54.769Z,30.75
2017-10-18T03:34:28.686Z,32.17
2017-10-18T03:35:02.661Z,34.72
2017-10-18T03:35:36.527Z,33.05
2017-10-18T03:36:10.445Z,28.02
2017-10-18T03:36:44.325Z,28.58
2017-10-18T03:37:18.207Z,30.80
2017-10-18T03:37:52.080Z,31.42
2017-10-18T03:38:25.964Z,33.88
2017-10-18T03:39:00.036Z,33.25
2017-10-18T03:39:33.913Z,31.40
2017-10-18T03:40:07.844Z,27.85
2017-10-18T03:40:41.716Z,34.30
2017-10-18T03:41:15.608Z,33.38
2017-10-18T03:41:49.506Z,33.40
2017-10-18T03:42:23.474Z,36.05
2017-10-18T03:42:57.355Z,29.75
2017-10-18T03:43:31.225Z,29.30
2017-10-18T03:44:05.090Z,28.12
2017-10-18T03:44:38.973Z,32.75
2017-10-18T03:45:12.857Z,34.42
2017-10-18T03:45:46.748Z,32.50
2017-10-18T03:46:20.613Z,32.78
2017-10-18T03:46:54.486Z,32.50
2017-10-18T03:47:28.395Z,29.40
2017-10-18T03:48:02.284Z,29.02
2017-10-18T03:48:36.234Z,31.15
2017-10-18T03:49:10.127Z,30.40
2017-10-18T03:49:44.005Z,32.38
2017-10-18T03:50:17.883Z,30.65
2017-10-18T03:50:51.743Z,29.42
2017-10-18T03:51:25.605Z,26.65
2017-10-18T03:51:59.489Z,31.65
2017-10-18T03:52:33.372Z,33.08
2017-10-18T03:53:07.235Z,33.90
2017-10-18T03:53:41.120Z,33.42
2017-10-18T03:54:20.788Z,31.67
2017-10-18T03:54:54.673Z,28.92
2017-10-18T03:55:28.551Z,23.87
2017-10-18T03:56:02.421Z,29.87
2017-10-18T03:56:36.329Z,28.95
2017-10-18T03:57:10.193Z,28.27
2017-10-18T03:57:44.070Z,36.47
2017-10-18T03:58:17.957Z,32.67
2017-10-18T03:58:51.838Z,34.67
2017-10-18T03:59:25.705Z,28.67
2017-10-18T03:59:59.595Z,28.60
2017-10-18T04:00:33.476Z,31.42
2017-10-18T04:01:07.356Z,31.75
2017-10-18T04:01:41.225Z,31.12
2017-10-18T04:02:15.096Z,28.62
2017-10-18T04:02:49.164Z,30.75
2017-10-18T04:03:23.030Z,33.92
2017-10-18T04:03:56.910Z,29.80
2017-10-18T04:04:30.803Z,27.87
2017-10-18T04:05:04.727Z,28.00
2017-10-18T04:05:38.600Z,32.25
2017-10-18T04:06:12.499Z,31.83
2017-10-18T04:06:46.392Z,30.02
2017-10-18T04:07:20.275Z,29.02
2017-10-18T04:07:54.143Z,28.50
2017-10-18T04:08:28.015Z,35.83
2017-10-18T04:09:01.880Z,30.33
2017-10-18T04:09:35.748Z,32.95
2017-10-18T04:10:09.650Z,30.83
2017-10-18T04:10:43.520Z,35.25
2017-10-18T04:11:17.384Z,30.33
2017-10-18T04:11:51.249Z,35.53
2017-10-18T04:12:25.181Z,26.02
2017-10-18T04:12:59.051Z,30.08
2017-10-18T04:13:32.924Z,36.22
2017-10-18T04:14:06.809Z,30.85
2017-10-18T04:14:40.680Z,30.88
2017-10-18T04:15:14.567Z,30.70
2017-10-18T04:15:48.444Z,26.80
2017-10-18T04:16:22.327Z,32.67
2017-10-18T04:16:56.219Z,32.85
2017-10-18T04:17:30.117Z,30.12
2017-10-18T04:18:03.988Z,31.02
2017-10-18T04:18:37.843Z,32.30
2017-10-18T04:19:11.720Z,31.10
2017-10-18T04:19:45.597Z,34.55
2017-10-18T04:20:19.493Z,29.40
2017-10-18T04:20:53.372Z,27.87
2017-10-18T04:21:27.296Z,30.45
2017-10-18T04:22:01.207Z,30.37
2017-10-18T04:22:35.350Z,29.15
2017-10-18T04:23:09.232Z,27.87
2017-10-18T04:23:43.130Z,29.58
2017-10-18T04:24:16.999Z,30.98
2017-10-18T04:24:50.870Z,27.52
2017-10-18T04:25:24.750Z,27.42
2017-10-18T04:25:58.636Z,27.40
2017-10-18T04:26:32.505Z,29.17
2017-10-18T04:27:06.429Z,33.45
2017-10-18T04:27:40.309Z,30.05
2017-10-18T04:28:14.180Z,29.98
2017-10-18T04:28:48.057Z,26.67
2017-10-18T04:29:21.920Z,34.25
2017-10-18T04:29:55.801Z,34.75
2017-10-18T04:30:29.695Z,28.83
2017-10-18T04:31:03.581Z,28.67
2017-10-18T04:31:37.460Z,31.67
2017-10-18T04:32:11.350Z,32.50
2017-10-18T04:32:45.226Z,26.52
2017-10-18T04:33:19.093Z,31.92
2017-10-18T04:33:52.960Z,31.67
2017-10-18T04:34:26.826Z,29.25
2017-10-18T04:35:00.680Z,31.37
2017-10-18T04:35:34.559Z,30.48
2017-10-18T04:36:08.425Z,26.75
2017-10-18T04:36:42.317Z,37.10
2017-10-18T04:37:16.233Z,28.12
2017-10-18T04:37:50.121Z,31.58
2017-10-18T04:38:24.008Z,34.80
2017-10-18T04:38:57.921Z,34.88
2017-10-18T04:39:31.792Z,32.15
2017-10-18T04:40:05.708Z,32.38
2017-10-18T04:40:39.612Z,27.37
2017-10-18T04:41:13.493Z,32.78
2017-10-18T04:41:47.370Z,28.55
2017-10-18T04:42:21.256Z,30.62
2017-10-18T04:42:55.153Z,31.12
2017-10-18T04:43:29.025Z,27.48
2017-10-18T04:44:02.902Z,27.05
2017-10-18T04:44:36.773Z,31.67
2017-10-18T04:45:10.657Z,28.50
2017-10-18T04:45:44.551Z,27.87
2017-10-18T04:46:18.436Z,30.12
2017-10-18T04:46:52.327Z,26.83
2017-10-18T04:47:26.192Z,29.75
2017-10-18T04:48:00.120Z,31.30
2017-10-18T04:48:34.001Z,29.35
2017-10-18T04:49:07.885Z,30.80
2017-10-18T04:49:41.763Z,28.12
2017-10-18T04:50:15.645Z,28.17
2017-10-18T04:50:49.522Z,32.78
2017-10-18T04:51:23.409Z,29.73
2017-10-18T04:51:57.272Z,33.15
2017-10-18T04:52:31.134Z,30.30
2017-10-18T04:53:04.994Z,36.53
2017-10-18T04:53:38.862Z,35.35
2017-10-18T04:54:12.742Z,34.28
2017-10-18T04:54:46.627Z,30.77
2017-10-18T04:55:20.497Z,32.65
2017-10-18T04:55:54.389Z,32.78
2017-10-18T04:56:28.255Z,34.35
2017-10-18T04:57:02.129Z,32.65
2017-10-18T04:57:35.994Z,35.63
2017-10-18T04:58:09.870Z,31.02
2017-10-18T04:58:43.740Z,36.15
2017-10-18T04:59:17.617Z,32.90
2017-10-18T04:59:51.508Z,29.17
2017-10-18T05:00:25.379Z,31.10
2017-10-18T05:00:59.270Z,30.95
2017-10-18T05:01:33.151Z,27.58
2017-10-18T05:02:07.022Z,33.60
2017-10-18T05:02:40.889Z,27.52
2017-10-18T05:03:14.766Z,38.78
2017-10-18T05:03:48.624Z,34.72
2017-10-18T05:04:22.494Z,33.85
2017-10-18T05:04:56.372Z,37.75
2017-10-18T05:05:30.250Z,31.15
2017-10-18T05:06:04.190Z,37.72
2017-10-18T05:06:38.914Z,36.38
2017-10-18T05:07:12.803Z,36.00
2017-10-18T05:07:46.682Z,33.47
2017-10-18T05:08:20.557Z,35.10
2017-10-18T05:08:54.438Z,34.38
2017-10-18T05:09:28.302Z,33.22
2017-10-18T05:10:02.167Z,32.75
2017-10-18T05:10:36.043Z,34.72
2017-10-18T05:11:09.940Z,35.80
2017-10-18T05:11:43.808Z,29.58
2017-10-18T05:12:17.718Z,27.17
2017-10-18T05:12:51.667Z,33.95
2017-10-18T05:13:25.550Z,32.80
2017-10-18T05:13:59.434Z,34.35
2017-10-18T05:14:33.322Z,33.90
2017-10-18T05:15:07.243Z,36.05
2017-10-18T05:15:41.134Z,34.05
2017-10-18T05:16:15.025Z,30.23
2017-10-18T05:16:48.893Z,33.63
2017-10-18T05:17:22.821Z,36.25
2017-10-18T05:17:56.714Z,32.53
2017-10-18T05:18:30.587Z,27.92
2017-10-18T05:19:04.508Z,31.62
2017-10-18T05:19:38.491Z,36.10
2017-10-18T05:20:12.392Z,31.98
2017-10-18T05:20:46.263Z,34.70
2017-10-18T05:21:20.164Z,29.48
2017-10-18T05:21:54.029Z,34.45
2017-10-18T05:22:27.921Z,36.55
2017-10-18T05:23:01.823Z,31.90
2017-10-18T05:23:35.720Z,39.15
2017-10-18T05:24:09.609Z,30.30
2017-10-18T05:24:43.480Z,29.87
2017-10-18T05:25:17.363Z,34.20
2017-10-18T05:25:51.241Z,34.28
2017-10-18T05:26:25.121Z,31.45
2017-10-18T05:26:58.998Z,34.63
2017-10-18T05:27:32.864Z,32.25
2017-10-18T05:28:06.758Z,29.40
2017-10-18T05:28:40.623Z,33.97
2017-10-18T05:29:14.510Z,34.17
2017-10-18T05:29:48.375Z,33.17
2017-10-18T05:30:22.284Z,29.77
2017-10-18T05:30:56.155Z,29.50
2017-10-18T05:31:30.026Z,28.83
2017-10-18T05:32:03.904Z,36.92
2017-10-18T05:32:37.760Z,36.60
2017-10-18T05:33:11.685Z,36.40
2017-10-18T05:33:45.576Z,37.95
2017-10-18T05:34:19.499Z,33.72
2017-10-18T05:34:53.404Z,36.85
2017-10-18T05:35:27.295Z,38.40
2017-10-18T05:36:01.299Z,31.92
2017-10-18T05:36:35.191Z,38.30
2017-10-18T05:37:09.072Z,36.13
2017-10-18T05:37:42.984Z,41.10
2017-10-18T05:38:16.882Z,40.67
2017-10-18T05:38:50.771Z,36.60
2017-10-18T05:39:24.667Z,35.28
2017-10-18T05:39:58.667Z,38.50
2017-10-18T05:40:32.599Z,40.85
2017-10-18T05:41:06.655Z,42.60
2017-10-18T05:41:40.566Z,39.40
2017-10-18T05:42:14.476Z,46.55
2017-10-18T05:42:48.360Z,55.03
2017-10-18T05:43:22.215Z,44.47
2017-10-18T05:43:56.161Z,48.22
2017-10-18T05:44:30.039Z,52.55
2017-10-18T05:45:04.137Z,49.47
2017-10-18T05:45:38.025Z,56.37
2017-10-18T05:46:11.888Z,58.75
2017-10-18T05:46:45.789Z,56.17
2017-10-18T05:47:19.703Z,51.85
2017-10-18T05:47:53.629Z,51.80
2017-10-18T05:48:27.840Z,67.50
2017-10-18T05:49:01.721Z,58.67
2017-10-18T05:49:35.584Z,60.50
2017-10-18T05:50:09.460Z,63.53
2017-10-18T05:50:43.334Z,72.10
2017-10-18T05:51:17.205Z,68.10
2017-10-18T05:51:51.133Z,68.15
2017-10-18T05:52:25.000Z,74.65
2017-10-18T05:52:58.902Z,62.08
2017-10-18T05:53:32.785Z,56.65
2017-10-18T05:54:06.657Z,57.33
2017-10-18T05:54:40.591Z,61.25
2017-10-18T05:55:14.488Z,55.40
2017-10-18T05:55:48.365Z,65.37
2017-10-18T05:56:22.237Z,67.03
2017-10-18T05:56:56.155Z,56.97
2017-10-18T05:57:30.031Z,62.33
2017-10-18T05:58:03.923Z,65.55
2017-10-18T05:58:38.072Z,58.70
2017-10-18T05:59:11.948Z,62.08
2017-10-18T05:59:45.813Z,56.03
2017-10-18T06:00:19.698Z,64.55
2017-10-18T06:00:53.585Z,56.55
2017-10-18T06:01:27.464Z,62.85
2017-10-18T06:02:01.458Z,63.42
2017-10-18T06:02:35.410Z,69.82
2017-10-18T06:03:09.465Z,71.53
2017-10-18T06:03:43.354Z,69.50
2017-10-18T06:04:17.399Z,70.35
2017-10-18T06:04:51.267Z,66.60
2017-10-18T06:05:25.141Z,65.78
2017-10-18T06:05:59.028Z,64.47
2017-10-18T06:06:32.896Z,66.15
2017-10-18T06:07:06.777Z,67.97
2017-10-18T06:07:40.731Z,69.18
2017-10-18T06:08:14.620Z,63.35
2017-10-18T06:08:48.489Z,63.40
2017-10-18T06:09:22.386Z,63.50
2017-10-18T06:09:56.267Z,64.50
2017-10-18T06:10:30.165Z,62.45
2017-10-18T06:11:04.028Z,60.90
2017-10-18T06:11:37.904Z,57.17
2017-10-18T06:12:11.856Z,61.72
2017-10-18T06:12:45.753Z,61.25
2017-10-18T06:13:19.635Z,57.70
2017-10-18T06:13:53.514Z,66.28
2017-10-18T06:14:27.381Z,75.53
2017-10-18T06:15:01.263Z,80.18
2017-10-18T06:15:35.135Z,87.30
2017-10-18T06:16:09.008Z,67.68
2017-10-18T06:16:42.873Z,70.85
2017-10-18T06:17:17.690Z,71.05
2017-10-18T06:17:51.559Z,71.40
2017-10-18T06:18:25.430Z,71.10
2017-10-18T06:18:59.322Z,72.57
2017-10-18T06:19:33.197Z,63.38
2017-10-18T06:20:07.070Z,76.85
2017-10-18T06:20:40.970Z,69.25
2017-10-18T06:21:14.874Z,72.50
2017-10-18T06:21:48.748Z,70.07
2017-10-18T06:22:22.645Z,62.47
2017-10-18T06:22:56.816Z,68.47
2017-10-18T06:23:30.687Z,68.68
2017-10-18T06:24:04.568Z,67.47
2017-10-18T06:24:38.435Z,65.37
2017-10-18T06:25:12.507Z,67.53
2017-10-18T06:25:46.371Z,69.75
2017-10-18T06:26:20.238Z,76.97
2017-10-18T06:26:54.174Z,71.32
2017-10-18T06:27:28.071Z,64.85
2017-10-18T06:28:01.940Z,76.00
2017-10-18T06:28:35.831Z,65.55
2017-10-18T06:29:09.709Z,65.20
2017-10-18T06:29:43.866Z,61.40
2017-10-18T06:30:17.777Z,61.88
2017-10-18T06:30:51.639Z,62.85
2017-10-18T06:31:25.511Z,56.35
2017-10-18T06:31:59.653Z,57.92
2017-10-18T06:32:33.563Z,73.60
2017-10-18T06:33:07.435Z,57.38
2017-10-18T06:33:41.319Z,61.13
2017-10-18T06:34:15.180Z,58.55
2017-10-18T06:34:49.041Z,63.80
2017-10-18T06:35:22.910Z,62.25
2017-10-18T06:35:56.816Z,58.72
2017-10-18T06:36:30.700Z,60.63
2017-10-18T06:37:04.614Z,58.20
2017-10-18T06:37:38.540Z,61.30
2017-10-18T06:38:12.414Z,59.83
2017-10-18T06:38:46.336Z,58.90
2017-10-18T06:39:20.253Z,66.57
2017-10-18T06:39:54.267Z,57.92
2017-10-18T06:40:28.174Z,62.53
2017-10-18T06:41:02.100Z,56.83
2017-10-18T06:41:36.185Z,54.10
2017-10-18T06:42:10.085Z,49.47
2017-10-18T06:42:43.989Z,47.65
2017-10-18T06:43:17.906Z,55.70
2017-10-18T06:43:51.801Z,42.35
2017-10-18T06:44:25.676Z,39.53
2017-10-18T06:44:59.546Z,45.63
2017-10-18T06:45:33.431Z,46.72
2017-10-18T06:46:07.303Z,54.38
2017-10-18T06:46:41.250Z,45.67
2017-10-18T06:47:15.141Z,42.10
2017-10-18T06:47:49.058Z,42.58
2017-10-18T06:48:22.959Z,43.78
2017-10-18T06:48:56.831Z,41.20
2017-10-18T06:49:30.794Z,47.67
2017-10-18T06:50:04.668Z,42.08
2017-10-18T06:50:38.533Z,38.97
2017-10-18T06:51:12.391Z,45.58
2017-10-18T06:51:46.271Z,41.53
2017-10-18T06:52:20.144Z,39.03
2017-10-18T06:52:54.043Z,43.45
2017-10-18T06:53:27.924Z,41.88
2017-10-18T06:54:01.794Z,45.22
2017-10-18T06:54:35.677Z,37.38
2017-10-18T06:55:09.555Z,43.20
2017-10-18T06:55:43.441Z,44.55
2017-10-18T06:56:17.311Z,49.60
2017-10-18T06:56:51.223Z,48.67
2017-10-18T06:57:25.135Z,48.17
2017-10-18T06:57:59.016Z,38.13
2017-10-18T06:58:32.923Z,42.42
2017-10-18T06:59:06.859Z,39.13
2017-10-18T06:59:40.747Z,40.58
2017-10-18T07:00:16.688Z,41.25
2017-10-18T07:00:50.568Z,45.03
2017-10-18T07:01:24.432Z,43.20
2017-10-18T07:01:58.300Z,39.88
2017-10-18T07:02:32.172Z,44.97
2017-10-18T07:03:06.048Z,43.95
2017-10-18T07:03:39.928Z,43.45
2017-10-18T07:04:13.843Z,50.97
2017-10-18T07:04:47.715Z,48.80
2017-10-18T07:05:21.584Z,43.80
2017-10-18T07:05:55.487Z,46.30
2017-10-18T07:06:29.362Z,51.53
2017-10-18T07:07:03.221Z,48.78
2017-10-18T07:07:37.105Z,50.95
2017-10-18T07:08:10.995Z,44.63
2017-10-18T07:08:44.860Z,45.55
2017-10-18T07:09:18.714Z,45.53
2017-10-18T07:09:52.594Z,46.97
2017-10-18T07:10:26.470Z,48.95
2017-10-18T07:11:00.367Z,49.58
2017-10-18T07:11:34.249Z,48.83
2017-10-18T07:12:08.131Z,47.35
2017-10-18T07:12:42.016Z,61.20
2017-10-18T07:13:15.910Z,56.33
2017-10-18T07:13:49.774Z,63.85
2017-10-18T07:14:23.647Z,51.92
2017-10-18T07:14:57.531Z,48.33
2017-10-18T07:15:31.439Z,57.60
2017-10-18T07:16:05.315Z,77.65
2017-10-18T07:16:39.186Z,50.78